This is the latest recevied weather packets stored in our database for station/object E22ZMG-1. If no packets are shown the sender has not sent any weather packets the latest 10 day(s).
| Time | Temp. | Humidity | Pressure | Rain* | Wind** | Luminosity | Snow |
|---|---|---|---|---|---|---|---|
| 1777428816 | 31.11° C | 52% | 976 hPa | - | - | 0 W/m² | - |
| 1777428190 | 31.67° C | 50% | 976 hPa | - | - | 0 W/m² | - |
| 1777427565 | 31.11° C | 53% | 976 hPa | - | - | 0 W/m² | - |
| 1777426940 | 31.67° C | 51% | 976 hPa | - | - | 0 W/m² | - |
| 1777426315 | 30.56° C | 54% | 976 hPa | - | - | 0 W/m² | - |
| 1777425689 | 30.56° C | 54% | 976 hPa | - | - | 0 W/m² | - |
| 1777425064 | 30° C | 56% | 976 hPa | - | - | 0 W/m² | - |
| 1777424439 | 29.44° C | 57% | 976 hPa | - | - | 0 W/m² | - |
| 1777423814 | 28.89° C | 59% | 976 hPa | - | - | 0 W/m² | - |
| 1777423188 | 28.89° C | 58% | 975 hPa | - | - | 0 W/m² | - |
| 1777422564 | 28.89° C | 58% | 975 hPa | - | - | 0 W/m² | - |
| 1777421937 | 28.89° C | 59% | 975 hPa | - | - | 0 W/m² | - |
| 1777421312 | 28.33° C | 60% | 975 hPa | - | - | 0 W/m² | - |
| 1777420687 | 28.33° C | 61% | 975 hPa | - | - | 0 W/m² | - |
| 1777420062 | 27.78° C | 62% | 975 hPa | - | - | 0 W/m² | - |
| 1777419437 | 28.33° C | 60% | 975 hPa | - | - | 0 W/m² | - |
| 1777418812 | 27.78° C | 61% | 975 hPa | - | - | 0 W/m² | - |
| 1777418186 | 28.33° C | 59% | 974 hPa | - | - | 0 W/m² | - |
| 1777417561 | 28.89° C | 57% | 974 hPa | - | - | 0 W/m² | - |
| 1777416936 | 28.33° C | 59% | 974 hPa | - | - | 0 W/m² | - |
| 1777416311 | 28.89° C | 57% | 974 hPa | - | - | 0 W/m² | - |
| 1777415686 | 29.44° C | 55% | 974 hPa | - | - | 0 W/m² | - |
| 1777415061 | 29.44° C | 54% | 974 hPa | - | - | 0 W/m² | - |
| 1777414436 | 30° C | 53% | 974 hPa | - | - | 0 W/m² | - |
| 1777413811 | 30.56° C | 53% | 974 hPa | - | - | 0 W/m² | - |
* Rain since midnight (hover to see other rain measurements)
** Current wind speed in m/s (hover to see current wind gust speed)